createdAt,value
2022-11-27T00:03:26.406Z,5.00
2022-11-27T00:13:28.270Z,5.00
2022-11-27T00:23:30.149Z,5.10
2022-11-27T00:33:32.269Z,5.00
2022-11-27T00:43:43.674Z,4.80
2022-11-27T00:53:46.801Z,5.00
2022-11-27T01:03:49.487Z,5.00
2022-11-27T01:13:52.057Z,4.90
2022-11-27T01:23:54.763Z,5.00
2022-11-27T01:33:59.920Z,4.90
2022-11-27T01:44:22.985Z,5.00
2022-11-27T01:54:29.636Z,5.00
2022-11-27T02:04:31.972Z,5.00
2022-11-27T02:15:09.132Z,4.90
2022-11-27T02:25:18.200Z,4.90
2022-11-27T02:35:40.241Z,4.70
2022-11-27T02:45:45.320Z,4.70
2022-11-27T02:55:50.267Z,4.60
2022-11-27T03:05:58.274Z,4.70
2022-11-27T03:16:31.021Z,4.80
2022-11-27T03:26:32.937Z,4.70
2022-11-27T03:36:35.302Z,4.70
2022-11-27T03:46:55.996Z,4.70
2022-11-27T03:57:20.338Z,4.70
2022-11-27T04:07:27.653Z,4.80
2022-11-27T04:17:32.610Z,4.80
2022-11-27T04:27:34.512Z,4.80
2022-11-27T04:37:39.437Z,4.90
2022-11-27T04:47:42.466Z,4.60
2022-11-27T04:57:44.768Z,4.50
2022-11-27T05:07:47.079Z,4.40
2022-11-27T05:17:52.061Z,4.30
2022-11-27T05:27:53.848Z,4.30
2022-11-27T05:37:55.763Z,4.60
2022-11-27T05:47:57.610Z,4.20
2022-11-27T05:57:59.390Z,4.20
2022-11-27T06:08:01.257Z,4.20
2022-11-27T06:18:03.080Z,4.20
2022-11-27T06:28:05.027Z,4.00
2022-11-27T06:38:06.920Z,3.90
2022-11-27T06:48:08.765Z,4.10
2022-11-27T06:58:11.598Z,4.10
2022-11-27T07:08:13.451Z,4.20
2022-11-27T07:18:15.522Z,4.30
2022-11-27T07:28:19.112Z,4.50
2022-11-27T07:38:21.202Z,4.60
2022-11-27T07:48:23.265Z,4.70
2022-11-27T07:58:25.110Z,4.80
2022-11-27T08:08:26.985Z,4.70
2022-11-27T08:18:29.282Z,4.70
2022-11-27T08:28:31.180Z,4.70
2022-11-27T08:38:33.118Z,4.70
2022-11-27T08:48:35.443Z,4.80
2022-11-27T08:58:37.391Z,4.60
2022-11-27T09:08:40.716Z,5.00
2022-11-27T09:18:45.488Z,4.80
2022-11-27T09:28:47.858Z,5.20
2022-11-27T09:38:49.877Z,5.40
2022-11-27T09:48:52.620Z,5.20
2022-11-27T09:58:59.647Z,5.20
2022-11-27T10:09:22.539Z,5.10
2022-11-27T10:19:46.384Z,5.40
2022-11-27T10:29:52.870Z,5.50
2022-11-27T10:39:58.945Z,5.70
2022-11-27T10:50:00.930Z,5.60
2022-11-27T11:00:14.940Z,5.70
2022-11-27T11:10:30.973Z,5.60
2022-11-27T11:20:33.240Z,5.80
2022-11-27T11:30:36.332Z,5.80
2022-11-27T11:40:38.247Z,6.00
2022-11-27T11:50:47.850Z,5.80
2022-11-27T12:01:26.559Z,6.00
2022-11-27T12:11:54.384Z,6.00
2022-11-27T12:22:36.457Z,6.10
2022-11-27T12:33:01.871Z,6.00
2022-11-27T12:43:18.693Z,5.80
2022-11-27T12:53:41.373Z,5.70
2022-11-27T13:03:49.267Z,5.60
2022-11-27T13:14:00.766Z,5.50
2022-11-27T13:24:03.720Z,5.70
2022-11-27T13:34:10.116Z,5.80
2022-11-27T13:44:28.145Z,5.50
2022-11-27T13:54:30.095Z,5.40
2022-11-27T14:04:33.558Z,5.60
2022-11-27T14:14:36.712Z,5.40
2022-11-27T14:24:41.804Z,5.30
2022-11-27T14:34:44.484Z,5.30
2022-11-27T14:44:46.401Z,5.10
2022-11-27T14:54:49.461Z,5.00
2022-11-27T15:05:03.654Z,4.90
2022-11-27T15:15:09.430Z,4.70
2022-11-27T15:25:42.796Z,4.60
2022-11-27T15:35:44.869Z,4.60
2022-11-27T15:45:47.687Z,4.60
2022-11-27T16:06:54.772Z,4.50
2022-11-27T16:16:56.716Z,4.50
2022-11-27T16:26:58.858Z,4.30
2022-11-27T16:37:00.740Z,4.20
2022-11-27T16:47:02.963Z,4.20
2022-11-27T16:57:04.978Z,4.20
2022-11-27T17:07:07.023Z,4.10
2022-11-27T17:17:08.873Z,4.10
2022-11-27T17:27:10.926Z,4.10
2022-11-27T17:37:12.718Z,4.10
2022-11-27T17:47:14.589Z,4.10
2022-11-27T17:57:16.790Z,4.10
2022-11-27T18:07:19.111Z,4.10
2022-11-27T18:17:21.075Z,4.00
2022-11-27T18:27:22.863Z,3.90
2022-11-27T18:37:25.125Z,3.90
2022-11-27T18:47:27.020Z,3.80
2022-11-27T18:57:29.076Z,3.80
2022-11-27T19:07:31.071Z,3.70
2022-11-27T19:17:32.923Z,3.70
2022-11-27T19:27:35.027Z,3.60
2022-11-27T19:37:36.931Z,3.50
2022-11-27T19:47:38.811Z,3.50
2022-11-27T19:57:41.268Z,3.40
2022-11-27T20:07:44.146Z,3.40
2022-11-27T20:17:46.486Z,3.50
2022-11-27T20:27:48.282Z,3.60
2022-11-27T20:37:50.295Z,3.60
2022-11-27T20:47:52.409Z,3.40
2022-11-27T20:57:55.109Z,3.20
2022-11-27T21:07:57.732Z,3.30
2022-11-27T21:17:59.626Z,3.20
2022-11-27T21:28:01.729Z,3.10
2022-11-27T21:38:03.610Z,5.40
2022-11-27T21:48:09.937Z,3.10
2022-11-27T21:58:14.668Z,2.90
2022-11-27T22:08:16.510Z,2.80
2022-11-27T22:18:18.369Z,2.60
2022-11-27T22:28:20.210Z,2.40
2022-11-27T22:38:22.083Z,2.40
2022-11-27T22:48:23.998Z,2.40
2022-11-27T22:58:25.843Z,2.30
2022-11-27T23:08:27.916Z,2.20
2022-11-27T23:18:29.912Z,2.10
2022-11-27T23:28:31.861Z,2.00
2022-11-27T23:38:33.770Z,1.90
2022-11-27T23:48:35.977Z,1.90
2022-11-27T23:58:42.355Z,1.90
